Flight Track Log - Related Links

Times and Time Zones

All times are in EDT time to prevent confusion due to time zone crossing. See the N777NC flight status page for this flight to view local times or setup timezone preferences in your user account.

Time Position Orientation Groundspeed Altitude Reporting Facility
EDT Latitude Longitude Course Direction KTS MPH feet Rate Location/Type
Tue 08:22:27 AM 32.1236 -81.1778 288° West 146 168 1,200  Level Jacksonville Center
Tue 08:23:27 AM 32.1417 -81.1308 66° East 203 234 2,900 2,350 Climbing Jacksonville Center
Tue 08:24:27 AM 32.2089 -81.1542 344° North 209 241 5,900 2,850 Climbing Jacksonville Center
Tue 08:25:27 AM 32.2475 -81.2344 300° West 263 303 8,600 2,050 Climbing Jacksonville Center
Tue 08:26:00 AM 32.2501 -81.6671 288° West  Level FlightAware Approximate
Tue 08:26:27 AM 32.2883 -81.3222 299° West 302 348 10,000  Level Jacksonville Center
Tue 08:27:00 AM 32.2760 -81.7617 288° West  Level FlightAware Approximate
Tue 08:27:27 AM 32.3125 -81.4250 286° West 317 365 11,800  Level Jacksonville Center
Tue 08:29:40 AM 32.3542 -81.6661 282° West 356 410 17,600 2,456 Climbing Atlanta Center
Tue 08:30:40 AM 32.3772 -81.7861 283° West 371 427 19,700 1,950 Climbing Atlanta Center
Tue 08:31:40 AM 32.4003 -81.9108 282° West 382 440 21,500 1,100 Climbing Atlanta Center
Tue 08:32:40 AM 32.4358 -82.0453 287° West 406 467 21,900 250 Climbing Atlanta Center
Tue 08:33:40 AM 32.4717 -82.1922 286° West 437 503 22,000 50 Climbing Atlanta Center
Tue 08:34:40 AM 32.5050 -82.3294 286° West 443 510 22,000  Level Atlanta Center
Tue 08:35:40 AM 32.5400 -82.4594 288° West 435 501 22,000 50 Level Atlanta Center
Tue 08:36:40 AM 32.5603 -82.5872 281° West 413 475 22,100  Climbing Atlanta Center
Tue 08:37:40 AM 32.5556 -82.7178 268° West 396 456 22,000 -50 Descending Atlanta Center
Tue 08:38:40 AM 32.5736 -82.8483 279° West 401 461 22,000  Level Atlanta Center
Tue 08:39:40 AM 32.6583 -82.9681 310° West 401 461 22,000  Level Atlanta Center
Tue 08:40:40 AM 32.7300 -83.0758 308° West 417 480 22,000  Level Atlanta Center
Tue 08:41:40 AM 32.7978 -83.1764 309° West 426 490 22,000  Level Atlanta Center
Tue 08:42:40 AM 32.8839 -83.2992 310° West 435 501 22,000 -450 Level Atlanta Center
Tue 08:43:40 AM 32.9597 -83.4075 310° West 447 514 21,100 -1,850 Descending Atlanta Center
Tue 08:44:40 AM 33.0353 -83.5061 312° West 425 489 18,300 -2,750 Descending Atlanta Center
Tue 08:45:40 AM 33.1067 -83.6022 312° West 400 460 15,600 -2,286 Descending Atlanta Center
Tue 08:46:25 AM 33.1667 -83.6667 318° Northwest 353 406 14,300 -914 Descending Atlanta TRACON
Tue 08:47:25 AM 33.2167 -83.7667 301° West 364 419 14,000 -400 Descending Atlanta TRACON
Tue 08:48:25 AM 33.2667 -83.8667 301° West 366 421 13,500 -632 Descending Atlanta TRACON
Tue 08:49:19 AM 33.3167 -83.9500 306° West 354 407 12,800 -789 Descending Atlanta TRACON
Tue 08:50:19 AM 33.3667 -84.0500 301° West 356 410 12,000 -400 Descending Atlanta TRACON
Tue 08:51:19 AM 33.4333 -84.1500 309° West 364 419 12,000  Level Atlanta TRACON
Tue 08:52:13 AM 33.4833 -84.2333 306° West 369 425 12,000  Level Atlanta TRACON
Tue 08:53:07 AM 33.5500 -84.3167 314° West 338 389 12,000 -850 Level Atlanta TRACON
Tue 08:54:13 AM 33.5500 -84.4167 270° West 300 345 10,300 -1,900 Descending Atlanta TRACON
Tue 08:55:07 AM 33.5500 -84.5167 270° West 276 318 8,200 -2,333 Descending Atlanta TRACON
Tue 08:56:01 AM 33.5333 -84.5833 253° West 260 299 6,100 -2,257 Descending Atlanta TRACON
Tue 08:56:56 AM 33.5333 -84.6667 270° West 257 296 4,100 -1,474 Descending Atlanta TRACON
Tue 08:57:55 AM 33.5500 -84.7333 287° West 279 321 3,300 -605 Descending Atlanta TRACON
Tue 08:58:55 AM 33.6167 -84.7167 12° North 248 285 2,900 -104 Descending Atlanta TRACON
Tue 08:59:50 AM 33.6167 -84.6500 90° East 194 223 3,100 218 Climbing Atlanta TRACON

Login

Don't have an account? Register now (free) for customized features, flight alerts, and more!